NCAR-RAP Real-Time Weather Data

Output produced by METARs form (14 October 2019  22:41 UTC)
found at http://weather.rap.ucar.edu/surface/
 
KJAN 142154Z 00000KT 10SM OVC035 23/15 A3005 RMK AO2 SLP174 T02280150
KJAN 142054Z 15006KT 10SM OVC037 23/15 A3005 RMK AO2 SLP173 T02280150 56015
KJAN 141954Z VRB04KT 10SM BKN034 BKN060 23/15 A3005 RMK AO2 SLP174 T02330150
KJAN 141854Z 13003KT 10SM OVC034 23/14 A3006 RMK AO2 SLP177 T02330144
KJAN 141754Z VRB03KT 10SM CLR 23/14 A3009 RMK AO2 SLP188 60000 T02280139 10228 20150 58008
KJAN 141654Z 05003KT 10SM BKN046 21/13 A3011 RMK AO2 SLP194 T02110133
KJAN 141554Z 03005KT 10SM BKN045 20/13 A3012 RMK AO2 SLP196 T02000133
KJAN 141454Z VRB03KT 10SM BKN050 18/13 A3012 RMK AO2 SLP198 60000 T01780128 50008
KJAN 141354Z 05004KT 10SM OVC045 16/12 A3013 RMK AO2 SLP200 T01560122
KJAN 141254Z 03003KT 10SM OVC043 15/12 A3011 RMK AO2 RAB15E28 SLP193 P0000 T01500122
KJAN 141154Z 01004KT 10SM OVC047 15/12 A3009 RMK AO2 SLP189 60000 T01500117 10150 20133 53011
KJAN 141054Z 00000KT 10SM OVC046 15/12 A3008 RMK AO2 SLP185 T01500117
KJAN 140954Z 00000KT 10SM FEW045 SCT070 OVC085 14/12 A3007 RMK AO2 SLP179 T01440117
KJAN 140854Z 00000KT 10SM BKN090 14/12 A3006 RMK AO2 RAB16E41 SLP177 P0000 60000 T01440117 58000
KJAN 140754Z 06003KT 10SM BKN070 OVC100 14/12 A3006 RMK AO2 RAB43E53 SLP177 P0000 T01440117
KJAN 140654Z 00000KT 10SM OVC100 14/11 A3007 RMK AO2 SLP178 T01440111
KJAN 140554Z 00000KT 10SM SCT110 13/11 A3006 RMK AO2 SLP177 T01330106 10156 20133 401940106 58007
KJAN 140454Z 00000KT 10SM SCT085 14/11 A3008 RMK AO2 SLP184 T01390106
KJAN 140354Z 15004KT 10SM BKN080 14/10 A3008 RMK AO2 SLP186 T01390100
KJAN 140254Z 00000KT 10SM FEW110 13/10 A3008 RMK AO2 SLP185 T01330100 51006
KJAN 140154Z 14004KT 10SM FEW085 14/09 A3008 RMK AO2 SLP183 T01390094
KJAN 140054Z 00000KT 10SM OVC085 15/10 A3007 RMK AO2 SLP182 T01500100 $
KJAN 132354Z 00000KT 10SM BKN120 16/09 A3006 RMK AO2 SLP179 60000 T01560089 10194 20156 54000 $
KJAN 132254Z 11003KT 10SM BKN080 17/08 A3006 RMK AO2 SLP178 T01670078 $
KJAN 132154Z 07004KT 10SM BKN100 BKN120 18/08 A3007 RMK AO2 SLP179 T01780078 $
KJAN 132054Z 36007KT 10SM FEW050 SCT090 BKN110 18/08 A3006 RMK AO2 RAB17E43 SLP179 P0000 60000 T01780078 56008 $
KJAN 131954Z 35008KT 10SM FEW050 BKN120 18/08 A3008 RMK AO2 SLP183 T01780078 $
KJAN 131854Z VRB03KT 10SM FEW050 SCT100 BKN120 19/09 A3006 RMK AO2 RAB1756E46 SLP178 P0000 T01890089 $
KJAN 131754Z 33004KT 10SM SCT090 OVC120 18/08 A3009 RMK AO2 SLP187 60000 T01830083 10189 20128 $
KJAN 131654Z 16003KT 10SM BKN090 OVC120 18/07 A3010 RMK AO2 PRESRR SLP191 T01780072 $
KJAN 131554Z 03005KT 10SM SCT090 OVC120 17/08 A3010 RMK AO2 SLP189 T01720078 $
KJAN 131454Z 00000KT 10SM FEW060 BKN080 OVC120 14/09 A3012 RMK AO2 RAB50E54 SLP198 P0000 60000 T01440089 53011 $
KJAN 131354Z 00000KT 10SM SCT080 OVC100 14/08 A3011 RMK AO2 SLP194 T01390083 $
KJAN 131254Z 00000KT 10SM SCT030 BKN095 13/08 A3008 RMK AO2 SLP185 T01330083 $
KJAN 131154Z 02003KT 10SM BKN025 13/09 A3009 RMK AO2 SLP186 T01280094 10128 20106 51010 $
KJAN 131054Z 00000KT 10SM SCT025 BKN090 13/09 A3007 RMK AO2 SLP181 T01280089 $
KJAN 131049Z 00000KT 10SM SCT025 BKN090 13/09 A3007 RMK AO2 $
KJAN 131017Z AUTO 00000KT 10SM BKN025 BKN090 12/09 A3007 RMK AO2 T01170094 $
KJAN 130954Z AUTO 00000KT 10SM SCT090 11/09 A3006 RMK AO2 SLP176 T01110089 $
KJAN 130854Z AUTO 00000KT 10SM CLR 12/09 A3005 RMK AO2 SLP171 T01170089 53004 $
KJAN 130754Z AUTO 35003KT 10SM CLR 11/08 A3004 RMK AO2 SLP170 T01110083 $
KJAN 130654Z AUTO 00000KT 10SM CLR 11/08 A3002 RMK AO2 SLP165 T01060078 $
KJAN 130554Z AUTO 00000KT 10SM CLR 11/08 A3003 RMK AO2 SLP169 T01110078 10161 20111 402110111 58013 $
KJAN 130454Z AUTO 00000KT 10SM CLR 12/08 A3005 RMK AO2 SLP175 T01170078 $
KJAN 130354Z 00000KT 10SM CLR 12/08 A3006 RMK AO2 SLP177 T01220078 $
KJAN 130254Z 00000KT 10SM CLR 13/09 A3007 RMK AO2 SLP182 T01280089 50002 $
KJAN 130154Z 00000KT 10SM CLR 13/08 A3007 RMK AO2 SLP182 T01330083 $
KJAN 130054Z 00000KT 10SM CLR 14/08 A3007 RMK AO2 SLP180 T01440078 $
KJAN 122354Z 00000KT 10SM CLR 16/06 A3007 RMK AO2 SLP180 T01610061 10211 20161 $
KJAN 122254Z 36006KT 10SM CLR 20/02 A3007 RMK AO2 SLP180 T02000022 $